createdAt,value
2016-09-25T00:00:04.967Z,1004.85
2016-09-25T00:01:04.990Z,1004.84
2016-09-25T00:02:05.003Z,1004.84
2016-09-25T00:03:05.027Z,1004.82
2016-09-25T00:04:05.047Z,1004.81
2016-09-25T00:05:05.063Z,1004.78
2016-09-25T00:06:05.078Z,1004.8
2016-09-25T00:07:05.102Z,1004.78
2016-09-25T00:08:05.118Z,1004.79
2016-09-25T00:09:05.139Z,1004.8
2016-09-25T00:10:05.155Z,1004.78
2016-09-25T00:11:05.173Z,1004.76
2016-09-25T00:12:05.191Z,1004.75
2016-09-25T00:13:05.212Z,1004.74
2016-09-25T00:14:05.229Z,1004.73
2016-09-25T00:15:05.245Z,1004.75
2016-09-25T00:16:05.270Z,1004.76
2016-09-25T00:17:05.281Z,1004.72
2016-09-25T00:18:05.303Z,1004.74
2016-09-25T00:19:05.325Z,1004.7
2016-09-25T00:20:05.341Z,1004.75
2016-09-25T00:21:05.360Z,1004.72
2016-09-25T00:22:05.377Z,1004.72
2016-09-25T00:23:05.396Z,1004.71
2016-09-25T00:24:05.418Z,1004.69
2016-09-25T00:25:05.433Z,1004.74
2016-09-25T00:26:05.453Z,1004.69
2016-09-25T00:27:05.466Z,1004.67
2016-09-25T00:28:05.488Z,1004.69
2016-09-25T00:29:05.505Z,1004.67
2016-09-25T00:30:05.527Z,1004.68
2016-09-25T00:31:05.543Z,1004.69
2016-09-25T00:32:05.558Z,1004.68
2016-09-25T00:33:05.584Z,1004.64
2016-09-25T00:34:05.602Z,1004.69
2016-09-25T00:35:05.619Z,1004.67
2016-09-25T00:36:05.636Z,1004.62
2016-09-25T00:37:05.657Z,1004.63
2016-09-25T00:38:05.674Z,1004.66
2016-09-25T00:39:05.687Z,1004.62
2016-09-25T00:40:05.709Z,1004.64
2016-09-25T00:41:05.725Z,1004.63
2016-09-25T00:42:05.748Z,1004.66
2016-09-25T00:43:05.772Z,1004.62
2016-09-25T00:44:05.784Z,1004.62
2016-09-25T00:45:05.808Z,1004.61
2016-09-25T00:46:05.818Z,1004.61
2016-09-25T00:47:05.836Z,1004.6
2016-09-25T00:48:05.852Z,1004.6
2016-09-25T00:49:05.873Z,1004.58
2016-09-25T00:50:05.896Z,1004.56
2016-09-25T00:51:05.913Z,1004.55
2016-09-25T00:52:05.931Z,1004.61
2016-09-25T00:53:05.946Z,1004.57
2016-09-25T00:54:05.968Z,1004.6
2016-09-25T00:55:05.989Z,1004.59
2016-09-25T00:56:06.003Z,1004.56
2016-09-25T00:57:06.022Z,1004.6
2016-09-25T00:58:06.044Z,1004.62
2016-09-25T00:59:06.056Z,1004.58
2016-09-25T01:00:06.077Z,1004.55
2016-09-25T01:01:06.094Z,1004.53
2016-09-25T01:02:06.111Z,1004.52
2016-09-25T01:03:06.136Z,1004.5
2016-09-25T01:04:06.149Z,1004.49
2016-09-25T01:05:06.170Z,1004.48
2016-09-25T01:06:06.186Z,1004.47
2016-09-25T01:07:06.203Z,1004.47
2016-09-25T01:08:06.222Z,1004.47
2016-09-25T01:09:06.244Z,1004.45
2016-09-25T01:10:06.257Z,1004.43
2016-09-25T01:11:06.279Z,1004.43
2016-09-25T01:12:06.301Z,1004.42
2016-09-25T01:13:06.332Z,1004.43
2016-09-25T01:14:06.336Z,1004.39
2016-09-25T01:15:06.348Z,1004.34
2016-09-25T01:16:06.370Z,1004.38
2016-09-25T01:17:06.392Z,1004.37
2016-09-25T01:18:06.411Z,1004.38
2016-09-25T01:19:06.428Z,1004.36
2016-09-25T01:20:06.443Z,1004.35
2016-09-25T01:21:06.468Z,1004.3
2016-09-25T01:22:06.481Z,1004.28
2016-09-25T01:23:06.504Z,1004.29
2016-09-25T01:24:06.522Z,1004.28
2016-09-25T01:25:06.538Z,1004.26
2016-09-25T01:26:06.558Z,1004.25
2016-09-25T01:27:06.574Z,1004.25
2016-09-25T01:28:06.597Z,1004.23
2016-09-25T01:29:06.609Z,1004.22
2016-09-25T01:30:06.627Z,1004.25
2016-09-25T01:31:06.656Z,1004.24
2016-09-25T01:32:06.670Z,1004.2
2016-09-25T01:33:06.684Z,1004.16
2016-09-25T01:34:06.707Z,1004.17
2016-09-25T01:35:06.723Z,1004.15
2016-09-25T01:36:06.746Z,1004.14
2016-09-25T01:37:06.761Z,1004.13
2016-09-25T01:38:06.772Z,1004.14
2016-09-25T01:39:06.797Z,1004.11
2016-09-25T01:40:06.811Z,1004.1
2016-09-25T01:41:06.836Z,1004.1
2016-09-25T01:42:06.847Z,1004.09
2016-09-25T01:43:06.872Z,1004.07
2016-09-25T01:44:06.888Z,1004.09
2016-09-25T01:45:06.904Z,1004.08
2016-09-25T01:46:06.939Z,1004.06
2016-09-25T01:47:06.947Z,1004.09
2016-09-25T01:48:06.961Z,1004.04
2016-09-25T01:49:06.977Z,1004.05
2016-09-25T01:50:07.000Z,1004.06
2016-09-25T01:51:07.017Z,1004.03
2016-09-25T01:52:07.032Z,1004.02
2016-09-25T01:53:07.056Z,1004.03
2016-09-25T01:54:07.075Z,1004.05
2016-09-25T01:55:07.090Z,1004.04
2016-09-25T01:56:07.107Z,1004.03
2016-09-25T01:57:07.128Z,1004
2016-09-25T01:58:07.148Z,1003.98
2016-09-25T01:59:07.162Z,1004.01
2016-09-25T02:00:07.185Z,1003.98
2016-09-25T02:01:07.199Z,1004.01
2016-09-25T02:02:07.217Z,1003.98
2016-09-25T02:03:07.241Z,1003.99
2016-09-25T02:04:07.251Z,1004.03
2016-09-25T02:05:07.277Z,1004.04
2016-09-25T02:06:07.295Z,1004.01
2016-09-25T02:07:07.313Z,1004
2016-09-25T02:08:07.329Z,1004.01
2016-09-25T02:09:07.346Z,1003.99
2016-09-25T02:10:07.365Z,1003.97
2016-09-25T02:11:07.386Z,1003.96
2016-09-25T02:12:07.404Z,1003.95
2016-09-25T02:13:07.426Z,1003.96
2016-09-25T02:14:07.438Z,1003.92
2016-09-25T02:15:07.454Z,1003.95
2016-09-25T02:16:07.478Z,1003.92
2016-09-25T02:17:07.497Z,1003.88
2016-09-25T02:18:07.512Z,1003.88
2016-09-25T02:19:07.533Z,1003.87
2016-09-25T02:20:07.552Z,1003.83
2016-09-25T02:21:07.571Z,1003.83
2016-09-25T02:22:07.583Z,1003.81
2016-09-25T02:23:07.600Z,1003.85
2016-09-25T02:24:07.625Z,1003.83
2016-09-25T02:25:07.644Z,1003.82
2016-09-25T02:26:07.660Z,1003.83
2016-09-25T02:27:07.678Z,1003.83
2016-09-25T02:28:07.697Z,1003.82
2016-09-25T02:29:07.718Z,1003.8
2016-09-25T02:30:07.736Z,1003.78
2016-09-25T02:31:07.753Z,1003.79
2016-09-25T02:32:07.771Z,1003.78
2016-09-25T02:33:07.790Z,1003.78
2016-09-25T02:34:07.811Z,1003.75
2016-09-25T02:35:07.825Z,1003.75
2016-09-25T02:36:07.845Z,1003.78
2016-09-25T02:37:07.864Z,1003.74
2016-09-25T02:38:07.884Z,1003.75
2016-09-25T02:39:07.900Z,1003.74
2016-09-25T02:40:07.916Z,1003.75
2016-09-25T02:41:07.932Z,1003.73
2016-09-25T02:42:07.959Z,1003.75
2016-09-25T02:43:07.976Z,1003.72
2016-09-25T02:44:07.987Z,1003.72
2016-09-25T02:45:08.007Z,1003.71
2016-09-25T02:46:08.024Z,1003.71
2016-09-25T02:47:08.044Z,1003.68
2016-09-25T02:48:08.067Z,1003.68
2016-09-25T02:49:08.080Z,1003.74
2016-09-25T02:50:08.100Z,1003.72
2016-09-25T02:51:08.119Z,1003.69
2016-09-25T02:52:08.142Z,1003.71
2016-09-25T02:53:08.154Z,1003.69
2016-09-25T02:54:08.178Z,1003.65
2016-09-25T02:55:08.198Z,1003.66
2016-09-25T02:56:08.212Z,1003.62
2016-09-25T02:57:08.233Z,1003.64
2016-09-25T02:58:08.251Z,1003.63
2016-09-25T02:59:08.268Z,1003.6
2016-09-25T03:00:08.291Z,1003.61
2016-09-25T03:01:08.308Z,1003.63
2016-09-25T03:02:08.322Z,1003.6
2016-09-25T03:03:08.346Z,1003.55
2016-09-25T03:04:08.363Z,1003.58
2016-09-25T03:05:08.377Z,1003.55
2016-09-25T03:06:08.400Z,1003.54
2016-09-25T03:07:08.419Z,1003.54
2016-09-25T03:08:08.435Z,1003.53
2016-09-25T03:09:08.455Z,1003.45
2016-09-25T03:10:08.471Z,1003.51
2016-09-25T03:11:08.492Z,1003.46
2016-09-25T03:12:08.514Z,1003.49
2016-09-25T03:13:08.531Z,1003.5
2016-09-25T03:14:08.545Z,1003.49
2016-09-25T03:15:08.568Z,1003.45
2016-09-25T03:16:08.582Z,1003.46
2016-09-25T03:17:08.602Z,1003.44
2016-09-25T03:18:08.622Z,1003.45
2016-09-25T03:19:08.642Z,1003.46
2016-09-25T03:20:08.657Z,1003.42
2016-09-25T03:21:08.672Z,1003.45
2016-09-25T03:22:08.694Z,1003.41
2016-09-25T03:23:08.712Z,1003.45
2016-09-25T03:24:08.730Z,1003.39
2016-09-25T03:25:08.753Z,1003.43
2016-09-25T03:26:08.767Z,1003.4
2016-09-25T03:27:08.790Z,1003.4
2016-09-25T03:28:08.805Z,1003.39
2016-09-25T03:29:08.824Z,1003.41
2016-09-25T03:30:08.840Z,1003.4
2016-09-25T03:31:08.866Z,1003.39
2016-09-25T03:32:08.883Z,1003.37
2016-09-25T03:33:08.901Z,1003.37
2016-09-25T03:34:08.922Z,1003.35
2016-09-25T03:35:08.934Z,1003.37
2016-09-25T03:36:08.952Z,1003.39
2016-09-25T03:37:08.975Z,1003.35
2016-09-25T03:38:08.992Z,1003.35
2016-09-25T03:39:09.010Z,1003.34
2016-09-25T03:40:09.030Z,1003.32
2016-09-25T03:41:09.046Z,1003.32
2016-09-25T03:42:09.066Z,1003.3
2016-09-25T03:43:09.082Z,1003.29
2016-09-25T03:44:09.102Z,1003.27
2016-09-25T03:45:09.119Z,1003.28
2016-09-25T03:46:09.140Z,1003.24
2016-09-25T03:47:09.163Z,1003.23
2016-09-25T03:48:09.175Z,1003.25
2016-09-25T03:49:09.195Z,1003.21
2016-09-25T03:50:09.212Z,1003.21
2016-09-25T03:51:09.229Z,1003.21
2016-09-25T03:52:09.250Z,1003.2
2016-09-25T03:53:09.270Z,1003.19
2016-09-25T03:54:09.281Z,1003.18
2016-09-25T03:55:09.301Z,1003.23
2016-09-25T03:56:09.322Z,1003.14
2016-09-25T03:57:09.334Z,1003.2
2016-09-25T03:58:09.363Z,1003.2
2016-09-25T03:59:09.379Z,1003.2
2016-09-25T04:01:09.424Z,1003.13
2016-09-25T04:02:09.439Z,1003.19
2016-09-25T04:03:09.453Z,1003.15
2016-09-25T04:04:09.477Z,1003.14
2016-09-25T04:05:09.490Z,1003.14
2016-09-25T04:06:09.511Z,1003.11
2016-09-25T04:07:09.530Z,1003.14
2016-09-25T04:08:09.549Z,1003.13
2016-09-25T04:09:09.571Z,1003.1
2016-09-25T04:10:09.588Z,1003.09
2016-09-25T04:11:09.604Z,1003.1
2016-09-25T04:12:09.625Z,1003.12
2016-09-25T04:13:09.641Z,1003.08
2016-09-25T04:14:09.662Z,1003.1
2016-09-25T04:15:09.679Z,1003.09
2016-09-25T04:16:09.698Z,1003.12
2016-09-25T04:17:09.717Z,1003.06
2016-09-25T04:18:09.733Z,1003.08
2016-09-25T04:19:09.755Z,1003.08
2016-09-25T04:20:09.773Z,1003.09
2016-09-25T04:21:09.795Z,1003.07
2016-09-25T04:22:09.810Z,1003.06
2016-09-25T04:23:09.825Z,1003.06
2016-09-25T04:24:09.848Z,1003.09
2016-09-25T04:25:09.865Z,1003.04
2016-09-25T04:26:09.880Z,1003.09
2016-09-25T04:27:09.900Z,1003.07
2016-09-25T04:28:09.918Z,1003.05
2016-09-25T04:29:09.945Z,1003.06
2016-09-25T04:30:09.958Z,1003.05
2016-09-25T04:31:09.979Z,1003.05
2016-09-25T04:32:09.995Z,1003.06
2016-09-25T04:33:10.016Z,1003.05
2016-09-25T04:34:10.028Z,1003.04
2016-09-25T04:35:10.047Z,1003.05
2016-09-25T04:36:10.064Z,1003.05
2016-09-25T04:37:10.091Z,1003.05
2016-09-25T04:38:10.108Z,1002.99
2016-09-25T04:39:10.125Z,1003.08
2016-09-25T04:40:10.138Z,1003.03
2016-09-25T04:41:10.163Z,1003.07
2016-09-25T04:42:10.182Z,1003.06
2016-09-25T04:43:10.202Z,1003.02
2016-09-25T04:44:10.218Z,1003.03
2016-09-25T04:45:10.232Z,1002.98
2016-09-25T04:46:10.253Z,1003.03
2016-09-25T04:47:10.273Z,1003.06
2016-09-25T04:48:10.285Z,1002.99
2016-09-25T04:49:10.308Z,1003
2016-09-25T04:50:10.329Z,1003.03
2016-09-25T04:51:10.345Z,1003.04
2016-09-25T04:52:10.367Z,1003.05
2016-09-25T04:53:10.383Z,1003.05
2016-09-25T04:54:10.401Z,1003.04
2016-09-25T04:55:10.416Z,1003.05
2016-09-25T04:56:10.436Z,1003.01
2016-09-25T04:57:10.459Z,1003.05
2016-09-25T04:58:10.473Z,1002.98
2016-09-25T04:59:10.493Z,1002.99
2016-09-25T05:00:10.514Z,1002.98
2016-09-25T05:01:10.531Z,1002.98
2016-09-25T05:02:10.546Z,1003.01
2016-09-25T05:03:10.562Z,1002.98
2016-09-25T05:04:10.580Z,1003.02
2016-09-25T05:05:10.601Z,1003.02
2016-09-25T05:06:10.618Z,1003.03
2016-09-25T05:07:10.644Z,1003
2016-09-25T05:08:10.663Z,1003.02
2016-09-25T05:09:10.679Z,1003.02
2016-09-25T05:10:10.698Z,1002.99
2016-09-25T05:11:10.712Z,1002.98
2016-09-25T05:12:10.735Z,1002.98
2016-09-25T05:13:10.753Z,1002.98
2016-09-25T05:14:10.771Z,1002.97
2016-09-25T05:15:10.791Z,1002.94
2016-09-25T05:16:10.803Z,1002.97
2016-09-25T05:17:10.827Z,1002.96
2016-09-25T05:18:10.840Z,1002.96
2016-09-25T05:19:10.860Z,1002.97
2016-09-25T05:20:10.880Z,1002.98
2016-09-25T05:21:10.902Z,1003.01
2016-09-25T05:22:10.916Z,1002.99
2016-09-25T05:23:10.934Z,1002.99
2016-09-25T05:24:10.952Z,1003.02
2016-09-25T05:25:10.970Z,1002.99
2016-09-25T05:26:10.987Z,1002.97
2016-09-25T05:27:11.005Z,1002.99
2016-09-25T05:28:11.028Z,1002.94
2016-09-25T05:29:11.043Z,1002.97
2016-09-25T05:30:11.062Z,1002.97
2016-09-25T05:31:11.083Z,1002.93
2016-09-25T05:32:11.108Z,1002.93
2016-09-25T05:33:11.118Z,1002.94
2016-09-25T05:34:11.133Z,1002.94
2016-09-25T05:35:11.158Z,1002.97
2016-09-25T05:36:11.174Z,1002.99
2016-09-25T05:37:11.189Z,1002.98
2016-09-25T05:38:11.212Z,1002.93
2016-09-25T05:39:11.226Z,1002.94
2016-09-25T05:40:11.251Z,1002.98
2016-09-25T05:41:11.263Z,1002.97
2016-09-25T05:42:11.282Z,1002.93
2016-09-25T05:43:11.299Z,1002.94
2016-09-25T05:44:11.316Z,1002.93
2016-09-25T05:45:11.342Z,1002.89
2016-09-25T05:46:11.356Z,1002.91
2016-09-25T05:47:11.377Z,1002.89
2016-09-25T05:48:11.395Z,1002.83
2016-09-25T05:49:11.416Z,1002.84
2016-09-25T05:50:11.432Z,1002.89
2016-09-25T05:51:11.446Z,1002.86
2016-09-25T05:52:11.471Z,1002.87
2016-09-25T05:53:11.490Z,1002.85
2016-09-25T05:54:11.507Z,1002.86
2016-09-25T05:55:11.522Z,1002.84
2016-09-25T05:56:11.552Z,1002.9
2016-09-25T05:57:11.562Z,1002.87
2016-09-25T05:58:11.577Z,1002.84
2016-09-25T05:59:11.599Z,1002.84
2016-09-25T06:00:11.619Z,1002.85
2016-09-25T06:01:11.636Z,1002.89
2016-09-25T06:02:11.655Z,1002.87
2016-09-25T06:03:11.678Z,1002.84
2016-09-25T06:04:11.692Z,1002.87
2016-09-25T06:05:11.711Z,1002.85
2016-09-25T06:06:11.729Z,1002.87
2016-09-25T06:07:11.747Z,1002.81
2016-09-25T06:08:11.770Z,1002.83
2016-09-25T06:09:11.786Z,1002.86
2016-09-25T06:10:11.806Z,1002.82
2016-09-25T06:11:11.823Z,1002.8
2016-09-25T06:12:11.845Z,1002.86
2016-09-25T06:13:11.861Z,1002.87
2016-09-25T06:14:11.882Z,1002.85
2016-09-25T06:15:11.899Z,1002.87
2016-09-25T06:16:11.918Z,1002.83
2016-09-25T06:17:11.936Z,1002.84
2016-09-25T06:18:11.954Z,1002.82
2016-09-25T06:19:11.969Z,1002.77
2016-09-25T06:20:11.994Z,1002.82
2016-09-25T06:21:12.009Z,1002.76
2016-09-25T06:22:12.032Z,1002.78
2016-09-25T06:23:12.049Z,1002.81
2016-09-25T06:24:12.071Z,1002.88
2016-09-25T06:25:12.086Z,1002.82
2016-09-25T06:26:12.102Z,1002.81
2016-09-25T06:27:12.123Z,1002.84
2016-09-25T06:28:12.147Z,1002.86
2016-09-25T06:29:12.163Z,1002.84
2016-09-25T06:30:12.180Z,1002.82
2016-09-25T06:31:12.196Z,1002.81
2016-09-25T06:32:12.222Z,1002.85
2016-09-25T06:33:12.242Z,1002.85
2016-09-25T06:34:12.262Z,1002.79
2016-09-25T06:35:12.276Z,1002.84
2016-09-25T06:36:12.297Z,1002.78
2016-09-25T06:37:12.312Z,1002.82
2016-09-25T06:38:12.332Z,1002.83
2016-09-25T06:39:12.351Z,1002.83
2016-09-25T06:40:12.368Z,1002.81
2016-09-25T06:41:12.389Z,1002.84
2016-09-25T06:42:12.410Z,1002.82
2016-09-25T06:43:12.429Z,1002.84
2016-09-25T06:44:12.451Z,1002.88
2016-09-25T06:45:12.468Z,1002.88
2016-09-25T06:46:12.488Z,1002.86
2016-09-25T06:47:12.510Z,1002.81
2016-09-25T06:48:12.528Z,1002.85
2016-09-25T06:49:12.547Z,1002.86
2016-09-25T06:50:12.564Z,1002.86
2016-09-25T06:51:12.585Z,1002.88
2016-09-25T06:52:12.605Z,1002.88
2016-09-25T06:53:12.632Z,1002.84
2016-09-25T06:54:12.646Z,1002.84
2016-09-25T06:55:12.666Z,1002.93
2016-09-25T06:56:12.683Z,1002.86
2016-09-25T06:57:12.705Z,1002.86
2016-09-25T06:58:12.724Z,1002.87
2016-09-25T06:59:12.736Z,1002.87
2016-09-25T07:00:12.761Z,1002.91
2016-09-25T07:01:12.784Z,1002.91
2016-09-25T07:02:12.800Z,1002.91
2016-09-25T07:03:12.821Z,1002.92
2016-09-25T07:04:12.842Z,1002.87
2016-09-25T07:05:12.863Z,1002.93
2016-09-25T07:06:12.884Z,1002.87
2016-09-25T07:07:12.895Z,1002.93
2016-09-25T07:08:12.921Z,1002.92
2016-09-25T07:09:12.943Z,1002.91
2016-09-25T07:10:12.960Z,1002.92
2016-09-25T07:11:12.976Z,1002.93
2016-09-25T07:12:12.999Z,1002.9
2016-09-25T07:13:13.018Z,1002.92
2016-09-25T07:14:13.042Z,1002.97
2016-09-25T07:15:13.058Z,1002.92
2016-09-25T07:16:13.080Z,1002.94
2016-09-25T07:17:13.106Z,1002.92
2016-09-25T07:18:13.118Z,1002.92
2016-09-25T07:19:13.140Z,1002.96
2016-09-25T07:20:13.164Z,1002.94
2016-09-25T07:21:13.180Z,1002.96
2016-09-25T07:22:13.240Z,1002.95
2016-09-25T07:23:13.249Z,1002.96
2016-09-25T07:24:13.291Z,1002.97
2016-09-25T07:25:13.298Z,1002.95
2016-09-25T07:26:13.336Z,1002.94
2016-09-25T07:27:13.354Z,1002.91
2016-09-25T07:28:13.364Z,1002.93
2016-09-25T07:29:13.365Z,1002.9
2016-09-25T07:30:13.366Z,1002.92
2016-09-25T07:31:13.388Z,1002.94
2016-09-25T07:32:13.407Z,1002.9
2016-09-25T07:33:13.429Z,1002.88
2016-09-25T07:34:13.455Z,1002.94
2016-09-25T07:35:13.467Z,1002.91
2016-09-25T07:36:13.489Z,1002.88
2016-09-25T07:37:13.508Z,1002.91
2016-09-25T07:38:13.532Z,1002.87
2016-09-25T07:39:13.553Z,1002.89
2016-09-25T07:40:13.573Z,1002.87
2016-09-25T07:41:13.595Z,1002.84
2016-09-25T07:42:13.616Z,1002.82
2016-09-25T07:43:13.635Z,1002.87
2016-09-25T07:44:13.658Z,1002.84
2016-09-25T07:45:13.678Z,1002.85
2016-09-25T07:46:13.701Z,1002.82
2016-09-25T07:47:13.721Z,1002.77
2016-09-25T07:48:13.741Z,1002.8
2016-09-25T07:49:13.761Z,1002.8
2016-09-25T07:50:13.776Z,1002.78
2016-09-25T07:51:13.800Z,1002.73
2016-09-25T07:52:13.822Z,1002.71
2016-09-25T07:53:13.840Z,1002.78
2016-09-25T07:54:13.861Z,1002.71
2016-09-25T07:55:13.888Z,1002.67
2016-09-25T07:56:13.909Z,1002.71
2016-09-25T07:57:13.928Z,1002.69
2016-09-25T07:58:13.950Z,1002.72
2016-09-25T07:59:13.971Z,1002.69
2016-09-25T08:00:13.989Z,1002.67
2016-09-25T08:01:14.010Z,1002.68
2016-09-25T08:02:14.034Z,1002.63
2016-09-25T08:03:14.056Z,1002.66
2016-09-25T08:04:14.074Z,1002.66
2016-09-25T08:05:14.099Z,1002.65
2016-09-25T08:06:14.121Z,1002.69
2016-09-25T08:07:14.142Z,1002.67
2016-09-25T08:08:14.159Z,1002.66
2016-09-25T08:09:14.183Z,1002.64
2016-09-25T08:10:14.199Z,1002.71
2016-09-25T08:11:14.219Z,1002.67
2016-09-25T08:12:14.247Z,1002.69
2016-09-25T08:13:14.265Z,1002.67
2016-09-25T08:14:14.291Z,1002.68
2016-09-25T08:15:14.313Z,1002.67
2016-09-25T08:16:14.335Z,1002.68
2016-09-25T08:17:14.355Z,1002.68
2016-09-25T08:18:14.378Z,1002.7
2016-09-25T08:19:14.399Z,1002.66
2016-09-25T08:20:14.421Z,1002.72
2016-09-25T08:21:14.440Z,1002.66
2016-09-25T08:22:14.459Z,1002.65
2016-09-25T08:23:14.482Z,1002.62
2016-09-25T08:24:14.505Z,1002.63
2016-09-25T08:25:14.525Z,1002.61
2016-09-25T08:26:14.549Z,1002.65
2016-09-25T08:27:14.572Z,1002.6
2016-09-25T08:28:14.588Z,1002.62
2016-09-25T08:29:14.611Z,1002.62
2016-09-25T08:30:14.633Z,1002.56
2016-09-25T08:31:14.661Z,1002.59
2016-09-25T08:32:14.680Z,1002.57
2016-09-25T08:33:14.699Z,1002.53
2016-09-25T08:34:14.726Z,1002.5
2016-09-25T08:35:14.741Z,1002.51
2016-09-25T08:36:14.762Z,1002.51
2016-09-25T08:37:14.785Z,1002.46
2016-09-25T08:38:14.808Z,1002.5
2016-09-25T08:39:14.834Z,1002.5
2016-09-25T08:40:14.853Z,1002.48
2016-09-25T08:41:14.879Z,1002.44
2016-09-25T08:42:14.900Z,1002.45
2016-09-25T08:43:14.918Z,1002.45
2016-09-25T08:44:14.946Z,1002.48
2016-09-25T08:45:14.966Z,1002.38
2016-09-25T08:46:14.986Z,1002.38
2016-09-25T08:47:15.010Z,1002.32
2016-09-25T08:48:15.027Z,1002.36
2016-09-25T08:49:15.050Z,1002.34
2016-09-25T08:50:15.075Z,1002.33
2016-09-25T08:51:15.098Z,1002.31
2016-09-25T08:52:15.117Z,1002.31
2016-09-25T08:53:15.140Z,1002.31
2016-09-25T08:54:15.163Z,1002.33
2016-09-25T08:55:15.187Z,1002.39
2016-09-25T08:56:15.207Z,1002.35
2016-09-25T08:57:15.228Z,1002.31
2016-09-25T08:58:15.254Z,1002.31
2016-09-25T08:59:15.272Z,1002.29
2016-09-25T09:00:15.292Z,1002.24
2016-09-25T09:01:15.319Z,1002.28
2016-09-25T09:02:15.339Z,1002.24
2016-09-25T09:03:15.360Z,1002.25
2016-09-25T09:04:15.387Z,1002.26
2016-09-25T09:05:15.408Z,1002.26
2016-09-25T09:06:15.430Z,1002.31
2016-09-25T09:07:15.454Z,1002.28
2016-09-25T09:08:15.474Z,1002.32
2016-09-25T09:09:15.494Z,1002.3
2016-09-25T09:10:15.520Z,1002.26
2016-09-25T09:11:15.540Z,1002.28
2016-09-25T09:12:15.564Z,1002.28
2016-09-25T09:13:15.599Z,1002.33
2016-09-25T09:14:15.614Z,1002.34
2016-09-25T09:15:15.628Z,1002.35
2016-09-25T09:16:15.656Z,1002.32
2016-09-25T09:17:15.679Z,1002.29
2016-09-25T09:18:15.695Z,1002.33
2016-09-25T09:19:15.721Z,1002.33
2016-09-25T09:20:15.741Z,1002.35
2016-09-25T09:21:15.768Z,1002.28
2016-09-25T09:22:15.786Z,1002.32
2016-09-25T09:23:15.810Z,1002.29
2016-09-25T09:24:15.837Z,1002.25
2016-09-25T09:25:15.855Z,1002.21
2016-09-25T09:26:15.881Z,1002.19
2016-09-25T09:27:15.903Z,1002.25
2016-09-25T09:28:15.930Z,1002.21
2016-09-25T09:29:15.949Z,1002.19
2016-09-25T09:30:15.964Z,1002.18
2016-09-25T09:31:15.994Z,1002.14
2016-09-25T09:32:16.015Z,1002.19
2016-09-25T09:33:16.039Z,1002.12
2016-09-25T09:34:16.055Z,1002.15
2016-09-25T09:35:16.082Z,1002.15
2016-09-25T09:36:16.107Z,1002.17
2016-09-25T09:37:16.127Z,1002.14
2016-09-25T09:38:16.154Z,1002.13
2016-09-25T09:39:16.171Z,1002.15
2016-09-25T09:40:16.197Z,1002.16
2016-09-25T09:41:16.215Z,1002.21
2016-09-25T09:42:16.244Z,1002.24
2016-09-25T09:43:16.263Z,1002.22
2016-09-25T09:44:16.289Z,1002.26
2016-09-25T09:45:16.307Z,1002.27
2016-09-25T09:46:16.334Z,1002.25
2016-09-25T09:47:16.355Z,1002.26
2016-09-25T09:48:16.379Z,1002.22
2016-09-25T09:49:16.405Z,1002.3
2016-09-25T09:50:16.428Z,1002.26
2016-09-25T09:51:16.449Z,1002.25
2016-09-25T09:52:16.470Z,1002.28
2016-09-25T09:53:16.497Z,1002.2
2016-09-25T09:54:16.519Z,1002.25
2016-09-25T09:55:16.540Z,1002.22
2016-09-25T09:56:16.561Z,1002.2
2016-09-25T09:57:16.588Z,1002.2
2016-09-25T09:58:16.609Z,1002.17
2016-09-25T09:59:16.630Z,1002.2
2016-09-25T10:00:16.650Z,1002.19
2016-09-25T10:01:16.674Z,1002.19
2016-09-25T10:02:16.704Z,1002.19
2016-09-25T10:03:16.725Z,1002.18
2016-09-25T10:04:16.748Z,1002.15
2016-09-25T10:05:16.778Z,1002.08
2016-09-25T10:06:16.787Z,1002.09
2016-09-25T10:07:16.811Z,1002.07
2016-09-25T10:08:16.837Z,1002.05
2016-09-25T10:09:16.860Z,1002.06
2016-09-25T10:10:16.887Z,1002.04
2016-09-25T10:11:16.907Z,1002.04
2016-09-25T10:12:16.929Z,1002.01
2016-09-25T10:13:16.948Z,1001.99
2016-09-25T10:14:16.978Z,1001.98
2016-09-25T10:15:17.002Z,1001.96
2016-09-25T10:16:17.024Z,1001.99
2016-09-25T10:17:17.044Z,1001.93
2016-09-25T10:18:17.066Z,1001.96
2016-09-25T10:19:17.096Z,1001.95
2016-09-25T10:20:17.115Z,1001.95
2016-09-25T10:21:17.142Z,1001.94
2016-09-25T10:22:17.163Z,1001.96
2016-09-25T10:23:17.185Z,1001.93
2016-09-25T10:24:17.203Z,1001.9
2016-09-25T10:25:17.232Z,1001.91
2016-09-25T10:26:17.257Z,1001.88
2016-09-25T10:27:17.276Z,1001.85
2016-09-25T10:28:17.302Z,1001.85
2016-09-25T10:29:17.324Z,1001.87
2016-09-25T10:30:17.346Z,1001.87
2016-09-25T10:31:17.367Z,1001.84
2016-09-25T10:32:17.389Z,1001.79
2016-09-25T10:33:17.416Z,1001.81
2016-09-25T10:34:17.438Z,1001.81
2016-09-25T10:35:17.468Z,1001.77
2016-09-25T10:36:17.485Z,1001.8
2016-09-25T10:37:17.511Z,1001.83
2016-09-25T10:38:17.528Z,1001.82
2016-09-25T10:39:17.554Z,1001.78
2016-09-25T10:40:17.578Z,1001.77
2016-09-25T10:41:17.606Z,1001.74
2016-09-25T10:42:17.625Z,1001.75
2016-09-25T10:43:17.688Z,1001.73
2016-09-25T10:44:17.691Z,1001.7
2016-09-25T10:45:17.731Z,1001.74
2016-09-25T10:46:17.770Z,1001.74
2016-09-25T10:47:17.794Z,1001.71
2016-09-25T10:48:17.799Z,1001.75
2016-09-25T10:49:17.803Z,1001.72
2016-09-25T10:50:17.809Z,1001.72
2016-09-25T10:51:17.839Z,1001.69
2016-09-25T10:53:17.882Z,1001.7
2016-09-25T10:54:17.904Z,1001.71
2016-09-25T10:55:17.930Z,1001.69
2016-09-25T10:56:17.949Z,1001.64
2016-09-25T10:57:17.979Z,1001.66
2016-09-25T10:58:17.995Z,1001.59
2016-09-25T10:59:18.027Z,1001.6
2016-09-25T11:00:18.047Z,1001.57
2016-09-25T11:01:18.069Z,1001.56
2016-09-25T11:02:18.090Z,1001.58
2016-09-25T11:03:18.118Z,1001.56
2016-09-25T11:04:18.135Z,1001.57
2016-09-25T11:05:18.163Z,1001.54
2016-09-25T11:06:18.191Z,1001.46
2016-09-25T11:07:18.211Z,1001.47
2016-09-25T11:08:18.231Z,1001.46
2016-09-25T11:09:18.260Z,1001.48
2016-09-25T11:10:18.285Z,1001.5
2016-09-25T11:11:18.308Z,1001.49
2016-09-25T11:12:18.332Z,1001.47
2016-09-25T11:13:18.352Z,1001.42
2016-09-25T11:14:18.377Z,1001.44
2016-09-25T11:15:18.398Z,1001.45
2016-09-25T11:19:18.496Z,1001.4
2016-09-25T11:24:18.605Z,1001.34
2016-09-25T11:34:18.849Z,1001.24
2016-09-25T11:35:18.873Z,1001.21
2016-09-25T11:36:18.903Z,1001.22
2016-09-25T11:37:18.924Z,1001.21
2016-09-25T11:38:18.947Z,1001.25
2016-09-25T11:39:18.975Z,1001.16
2016-09-25T11:40:18.997Z,1001.16
2016-09-25T11:41:19.020Z,1001.19
2016-09-25T11:42:19.042Z,1001.18
2016-09-25T11:43:19.071Z,1001.13
2016-09-25T11:44:19.090Z,1001.13
2016-09-25T11:45:19.112Z,1001.08
2016-09-25T11:46:19.137Z,1001.09
2016-09-25T11:47:19.163Z,1001.11
2016-09-25T11:48:19.190Z,1001.09
2016-09-25T11:49:19.214Z,1001.08
2016-09-25T11:50:19.232Z,1001.1
2016-09-25T11:51:19.258Z,1001.1
2016-09-25T11:52:19.286Z,1001.1
2016-09-25T11:53:19.309Z,1001.09
2016-09-25T11:54:19.331Z,1001.11
2016-09-25T11:55:19.356Z,1001.05
2016-09-25T11:56:19.382Z,1001.09
2016-09-25T11:57:19.402Z,1001.08
2016-09-25T11:58:19.428Z,1001.06
2016-09-25T11:59:19.455Z,1001.01
2016-09-25T12:00:19.476Z,1001.05
2016-09-25T12:01:19.503Z,1000.98
2016-09-25T12:02:19.526Z,1001
2016-09-25T12:03:19.549Z,1001.02
2016-09-25T12:04:19.571Z,1000.96
2016-09-25T12:05:19.596Z,1000.9
2016-09-25T12:06:19.626Z,1000.9
2016-09-25T12:07:19.648Z,1000.9
2016-09-25T12:08:19.669Z,1000.91
2016-09-25T12:09:19.700Z,1000.91
2016-09-25T12:10:19.726Z,1000.88
2016-09-25T12:11:19.742Z,1000.88
2016-09-25T12:12:19.771Z,1000.82
2016-09-25T12:13:19.799Z,1000.89
2016-09-25T12:14:19.821Z,1000.9
2016-09-25T12:15:19.841Z,1000.86
2016-09-25T12:16:19.865Z,1000.83
2016-09-25T12:17:19.891Z,1000.87
2016-09-25T12:18:19.919Z,1000.83
2016-09-25T12:19:19.944Z,1000.84
2016-09-25T12:20:19.964Z,1000.79
2016-09-25T12:21:19.989Z,1000.79
2016-09-25T12:22:20.022Z,1000.81
2016-09-25T12:23:20.042Z,1000.75
2016-09-25T12:24:20.060Z,1000.72
2016-09-25T12:25:20.090Z,1000.8
2016-09-25T12:26:20.112Z,1000.77